Flight Track Log - Related Links

Times and Time Zones

All times are in EDT time to prevent confusion due to time zone crossing. See the ZS-SNC flight status page for this flight to view local times or setup timezone preferences in your user account.

Time Position Orientation Groundspeed Altitude Reporting Facility
EDT Latitude Longitude Course Direction KTS MPH feet Rate Location/Type
Mon 04:25:33 AM -26.1020 28.2490 18° North 166 191 5,800  Level FlightAware ADS-B
Mon 04:26:08 AM -26.0730 28.2570 14° North 170 196 6,800 1,292 Climbing FlightAware ADS-B
Mon 04:26:38 AM -26.0550 28.2440 327° Northwest 174 200 7,200 764 Climbing FlightAware ADS-B
Mon 04:27:03 AM -26.0590 28.2230 258° West 197 227 7,500 840 Climbing FlightAware ADS-B
Mon 04:27:28 AM -26.0790 28.1910 235° Southwest 247 284 7,900 1,200 Climbing FlightAware ADS-B
Mon 04:28:03 AM -26.1040 28.1530 234° Southwest 285 328 8,700 2,182 Climbing FlightAware ADS-B
Mon 04:28:23 AM -26.1200 28.1270 236° Southwest 282 325 9,900 2,400 Climbing FlightAware ADS-B
Mon 04:29:13 AM -26.1570 28.0640 237° Southwest 312 359 11,500 1,575 Climbing FlightAware ADS-B
Mon 04:29:43 AM -26.1810 28.0240 236° Southwest 339 390 12,000 1,440 Climbing FlightAware ADS-B
Mon 04:30:28 AM -26.2260 27.9490 236° Southwest 370 426 13,300 1,800 Climbing FlightAware ADS-B
Mon 04:31:13 AM -26.2670 27.8810 236° Southwest 386 444 14,700 2,047 Climbing FlightAware ADS-B
Mon 04:31:53 AM -26.3130 27.8060 236° Southwest 398 458 16,200 1,976 Climbing FlightAware ADS-B
Mon 04:32:38 AM -26.3510 27.7420 236° Southwest 406 467 17,500 2,000 Climbing FlightAware ADS-B
Mon 04:33:38 AM -26.4150 27.6350 236° Southwest 412 474 19,700 2,040 Climbing FlightAware ADS-B
Mon 04:34:18 AM -26.4590 27.5670 234° Southwest 423 487 20,900 1,906 Climbing FlightAware ADS-B
Mon 04:35:03 AM -26.5250 27.4970 223° Southwest 429 494 22,400 1,976 Climbing FlightAware ADS-B
Mon 04:35:43 AM -26.5820 27.4360 224° Southwest 434 499 23,700 1,800 Climbing FlightAware ADS-B
Mon 04:36:23 AM -26.6380 27.3760 224° Southwest 442 509 24,800 1,600 Climbing FlightAware ADS-B
Mon 04:36:58 AM -26.6920 27.3190 223° Southwest 449 517 25,700 1,080 Climbing FlightAware ADS-B
Mon 04:38:03 AM -26.7400 27.2660 225° Southwest 453 521 26,600 1,513 Climbing FlightAware ADS-B
Mon 04:38:53 AM -26.8670 27.1310 223° Southwest 459 528 28,600 2,653 Climbing FlightAware ADS-B
Mon 04:39:38 AM -26.9330 27.0590 224° Southwest 468 539 30,800 2,169 Climbing FlightAware ADS-B
Mon 04:41:03 AM -27.0090 26.9770 224° Southwest 465 535 33,300 1,200 Climbing FlightAware ADS-B
Mon 04:41:43 AM -27.0620 26.9200 224° Southwest 465 535 33,300  Level FlightAware ADS-B
Mon 04:42:23 AM -27.1140 26.8620 225° Southwest 465 535 33,300  Level FlightAware ADS-B
Mon 04:43:03 AM -27.1670 26.8050 224° Southwest 465 535 33,300  Level FlightAware ADS-B
Mon 04:43:53 AM -27.2330 26.7340 224° Southwest 465 535 33,300  Level FlightAware ADS-B
Mon 04:44:33 AM -27.2850 26.6770 224° Southwest 465 535 33,300  Level FlightAware ADS-B
Mon 04:45:13 AM -27.3380 26.6200 224° Southwest 465 535 33,300  Level FlightAware ADS-B
Mon 04:45:53 AM -27.3900 26.5620 225° Southwest 465 535 33,300  Level FlightAware ADS-B
Mon 04:46:33 AM -27.4430 26.5050 224° Southwest 465 535 33,300  Level FlightAware ADS-B
Mon 04:47:23 AM -27.5090 26.4340 224° Southwest 465 535 33,300  Level FlightAware ADS-B
Mon 04:48:03 AM -27.5610 26.3760 225° Southwest 465 535 33,300  Level FlightAware ADS-B
Mon 04:48:43 AM -27.6140 26.3190 224° Southwest 465 535 33,300  Level FlightAware ADS-B
Mon 04:49:23 AM -27.6670 26.2620 224° Southwest 465 535 33,300  Level FlightAware ADS-B
Mon 04:50:03 AM -27.7190 26.2040 225° Southwest 465 535 33,300 409 Level FlightAware ADS-B
Mon 04:52:00 AM -27.8638 26.0437 224° Southwest  Level Estimated
Mon 04:53:00 AM -27.9380 25.9613 224° Southwest  Level Estimated
Mon 04:54:00 AM -28.0122 25.8788 224° Southwest  Level Estimated
Mon 04:55:00 AM -28.0863 25.7961 225° Southwest  Level Estimated
Mon 04:56:00 AM -28.1604 25.7134 225° Southwest  Level Estimated
Mon 04:57:00 AM -28.2344 25.6306 225° Southwest  Level Estimated
Mon 04:58:00 AM -28.3083 25.5476 225° Southwest  Level Estimated
Mon 04:59:00 AM -28.3822 25.4645 225° Southwest  Level Estimated
Mon 05:00:00 AM -28.4561 25.3813 225° Southwest  Level Estimated
Mon 05:00:53 AM -28.8180 24.9330 225° Southwest 441 507 38,000  Level FlightAware ADS-B
Mon 05:01:00 AM -28.5299 25.2980 225° Southwest  Level Estimated
Mon 05:01:38 AM -28.8900 24.8510 225° Southwest 443 510 38,000  Level FlightAware ADS-B
Mon 05:02:23 AM -28.9490 24.7830 225° Southwest 443 510 38,000  Level FlightAware ADS-B
Mon 05:03:03 AM -28.9980 24.7270 225° Southwest 443 510 38,000  Level FlightAware ADS-B
Mon 05:03:43 AM -29.0470 24.6700 225° Southwest 443 510 38,000  Level FlightAware ADS-B
Mon 05:04:28 AM -29.1360 24.5630 226° Southwest 444 511 38,000  Level FlightAware ADS-B
Mon 05:05:08 AM -29.1840 24.5090 224° Southwest 444 511 38,000  Level FlightAware ADS-B
Mon 05:05:58 AM -29.2580 24.4210 226° Southwest 444 511 38,000  Level FlightAware ADS-B
Mon 05:06:43 AM -29.3240 24.3430 226° Southwest 440 506 38,000  Level FlightAware ADS-B
Mon 05:07:23 AM -29.3720 24.2860 226° Southwest 440 506 38,000  Level FlightAware ADS-B
Mon 05:08:13 AM -29.4540 24.1890 226° Southwest 443 510 38,000  Level FlightAware ADS-B
Mon 05:08:53 AM -29.5160 24.1160 226° Southwest 439 505 38,000  Level FlightAware ADS-B
Mon 05:09:33 AM -29.5740 24.0480 226° Southwest 442 509 38,000  Level FlightAware ADS-B
Mon 05:10:18 AM -29.6290 23.9830 226° Southwest 442 509 38,000  Level FlightAware ADS-B
Mon 05:10:58 AM -29.6960 23.9030 226° Southwest 440 506 38,000  Level FlightAware ADS-B
Mon 05:11:38 AM -29.7510 23.8370 226° Southwest 439 505 38,000  Level FlightAware ADS-B
Mon 05:12:13 AM -29.8010 23.7780 226° Southwest 430 495 38,000  Level FlightAware ADS-B
Mon 05:13:03 AM -29.8700 23.6960 226° Southwest 428 493 38,000  Level FlightAware ADS-B
Mon 05:13:43 AM -29.9260 23.6280 226° Southwest 429 494 38,000  Level FlightAware ADS-B
Mon 05:14:28 AM -29.9900 23.5530 225° Southwest 430 495 38,000  Level FlightAware ADS-B
Mon 05:15:08 AM -30.0460 23.4850 226° Southwest 430 495 38,000  Level FlightAware ADS-B
Mon 05:15:48 AM -30.1010 23.4180 226° Southwest 438 504 38,000  Level FlightAware ADS-B
Mon 05:16:33 AM -30.1660 23.3410 226° Southwest 439 505 38,000  Level FlightAware ADS-B
Mon 05:17:28 AM -30.2410 23.2500 226° Southwest 427 491 38,000  Level FlightAware ADS-B
Mon 05:18:08 AM -30.2930 23.1860 227° Southwest 426 490 38,000  Level FlightAware ADS-B
Mon 05:18:53 AM -30.3580 23.1080 226° Southwest 426 490 38,000  Level FlightAware ADS-B
Mon 05:19:28 AM -30.4070 23.0480 227° Southwest 423 487 38,000  Level FlightAware ADS-B
Mon 05:20:08 AM -30.4550 22.9910 226° Southwest 428 493 38,000  Level FlightAware ADS-B
Mon 05:20:58 AM -30.5290 22.9000 227° Southwest 427 491 38,000  Level FlightAware ADS-B
Mon 05:21:38 AM -30.5850 22.8320 226° Southwest 426 490 38,000  Level FlightAware ADS-B
Mon 05:22:23 AM -30.6460 22.7570 227° Southwest 426 490 38,000  Level FlightAware ADS-B
Mon 05:23:03 AM -30.6960 22.6960 226° Southwest 430 495 38,000  Level FlightAware ADS-B
Mon 05:23:38 AM -30.7370 22.6440 227° Southwest 430 495 38,000  Level FlightAware ADS-B
Mon 05:24:58 AM -30.8600 22.4940 226° Southwest 427 491 38,000  Level FlightAware ADS-B
Mon 05:25:33 AM -30.9010 22.4420 227° Southwest 427 491 38,000  Level FlightAware ADS-B
Mon 05:26:13 AM -30.9470 22.3850 227° Southwest 427 491 38,000  Level FlightAware ADS-B
Mon 05:27:03 AM -31.0040 22.3130 227° Southwest 427 491 38,000  Level FlightAware ADS-B
Mon 05:27:43 AM -31.0500 22.2560 227° Southwest 427 491 38,000  Level FlightAware ADS-B
Mon 05:29:23 AM -31.2180 22.0480 227° Southwest 430 495 38,000  Level FlightAware ADS-B
Mon 05:30:08 AM -31.2820 21.9680 227° Southwest 431 496 38,000  Level FlightAware ADS-B
Mon 05:31:43 AM -31.4120 21.8050 227° Southwest 429 494 38,000  Level FlightAware ADS-B
Mon 05:32:23 AM -31.4640 21.7390 227° Southwest 433 498 38,000  Level FlightAware ADS-B
Mon 05:33:23 AM -31.5460 21.6350 227° Southwest 433 498 38,000  Level FlightAware ADS-B
Mon 05:34:03 AM -31.6010 21.5650 227° Southwest 433 498 38,000  Level FlightAware ADS-B
Mon 05:35:23 AM -31.7080 21.4290 227° Southwest 434 499 38,000  Level FlightAware ADS-B
Mon 05:36:33 AM -31.8030 21.3060 228° Southwest 430 495 38,000  Level FlightAware ADS-B
Mon 05:36:53 AM -31.8260 21.2770 227° Southwest 430 495 38,000  Level FlightAware ADS-B
Mon 05:37:43 AM -31.8820 21.2030 228° Southwest 430 495 38,000  Level FlightAware ADS-B
Mon 05:38:23 AM -31.9280 21.1430 228° Southwest 430 495 38,000  Level FlightAware ADS-B
Mon 05:39:03 AM -31.9730 21.0840 228° Southwest 430 495 38,000  Level FlightAware ADS-B
Mon 05:39:43 AM -32.0180 21.0250 228° Southwest 430 495 38,000  Level FlightAware ADS-B
Mon 05:40:23 AM -32.0630 20.9660 228° Southwest 430 495 38,000  Level FlightAware ADS-B
Mon 05:41:13 AM -32.1200 20.8910 228° Southwest 430 495 38,000  Level FlightAware ADS-B
Mon 05:41:53 AM -32.1650 20.8320 228° Southwest 430 495 38,000  Level FlightAware ADS-B
Mon 05:42:33 AM -32.2100 20.7730 228° Southwest 430 495 38,000  Level FlightAware ADS-B
Mon 05:43:13 AM -32.2560 20.7130 228° Southwest 430 495 38,000  Level FlightAware ADS-B
Mon 05:43:53 AM -32.3010 20.6540 228° Southwest 430 495 38,000  Level FlightAware ADS-B
Mon 05:44:43 AM -32.3580 20.5790 228° Southwest 430 495 38,000  Level FlightAware ADS-B
Mon 05:45:23 AM -32.4030 20.5200 228° Southwest 430 495 38,000 -791 Level FlightAware ADS-B
Mon 05:47:00 AM -32.5212 20.3784 225° Southwest  Level Estimated
Mon 05:48:00 AM -32.5942 20.2906 225° Southwest  Level Estimated
Mon 05:48:23 AM -32.7620 20.0610 225° Southwest 420 483 35,100  Level FlightAware ADS-B
Mon 05:49:03 AM -32.8150 19.9900 228° Southwest 421 484 33,200 -2,557 Descending FlightAware ADS-B
Mon 05:50:18 AM -32.9140 19.8590 228° Southwest 416 479 30,200 -2,175 Descending FlightAware ADS-B
Mon 05:51:43 AM -33.0150 19.7250 228° Southwest 393 452 27,400 -1,968 Descending FlightAware ADS-B
Mon 05:52:23 AM -33.0630 19.6610 228° Southwest 387 445 26,100 -1,906 Descending FlightAware ADS-B
Mon 05:53:08 AM -33.1160 19.5900 228° Southwest 367 422 24,700 -1,950 Descending FlightAware ADS-B
Mon 05:53:43 AM -33.1560 19.5360 228° Southwest 361 415 23,500 -1,800 Descending FlightAware ADS-B
Mon 05:54:28 AM -33.2040 19.4710 229° Southwest 368 423 22,300 -1,714 Descending FlightAware ADS-B
Mon 05:55:28 AM -33.2700 19.3820 228° Southwest 352 405 20,500 -1,980 Descending FlightAware ADS-B
Mon 05:56:08 AM -33.3160 19.3200 228° Southwest 353 406 19,000 -2,100 Descending FlightAware ADS-B
Mon 05:56:48 AM -33.3580 19.2630 229° Southwest 344 396 17,700 -1,976 Descending FlightAware ADS-B
Mon 05:57:33 AM -33.4060 19.1970 229° Southwest 343 395 16,200 -2,047 Descending FlightAware ADS-B
Mon 05:58:13 AM -33.4550 19.1440 222° Southwest 344 396 14,800 -2,025 Descending FlightAware ADS-B
Mon 05:58:53 AM -33.5020 19.0960 220° Southwest 345 397 13,500 -2,047 Descending FlightAware ADS-B
Mon 05:59:38 AM -33.5570 19.0380 221° Southwest 329 379 11,900 -2,118 Descending FlightAware ADS-B
Mon 06:00:18 AM -33.6050 18.9880 221° Southwest 324 373 10,500 -2,057 Descending FlightAware ADS-B
Mon 06:00:48 AM -33.6400 18.9520 221° Southwest 327 376 9,500 -1,745 Descending FlightAware ADS-B
Mon 06:01:13 AM -33.6680 18.9230 221° Southwest 318 366 8,900 -1,527 Descending FlightAware ADS-B
Mon 06:01:43 AM -33.7010 18.8880 221° Southwest 310 357 8,100 -1,600 Descending FlightAware ADS-B
Mon 06:02:13 AM -33.7320 18.8550 222° Southwest 307 353 7,300 -1,527 Descending FlightAware ADS-B
Mon 06:02:38 AM -33.7610 18.8250 221° Southwest 306 352 6,700 -1,350 Descending FlightAware ADS-B
Mon 06:02:53 AM -33.7770 18.8080 221° Southwest 301 346 6,400 -1,200 Descending FlightAware ADS-B
Mon 06:03:23 AM -33.8070 18.7760 222° Southwest 301 346 5,800 -1,050 Descending FlightAware ADS-B
Mon 06:03:33 AM -33.8180 18.7650 220° Southwest 299 344 5,700 -750 Descending FlightAware ADS-B
Mon 06:04:03 AM -33.8520 18.7350 216° Southwest 299 344 5,300 -1,050 Descending FlightAware ADS-B
Mon 06:04:13 AM -33.8670 18.7310 192° South 305 351 5,000 -1,400 Descending FlightAware ADS-B
Mon 06:04:33 AM -33.8940 18.7340 175° South 310 357 4,600 -1,333 Descending FlightAware ADS-B
Mon 06:04:58 AM -33.9300 18.7400 172° South 295 339 4,000 -982 Descending FlightAware ADS-B
Mon 06:05:28 AM -33.9700 18.7470 172° South 278 320 3,700 -545 Descending FlightAware ADS-B
Mon 06:05:53 AM -34.0010 18.7530 171° South 261 300 3,500 -600 Descending FlightAware ADS-B
Mon 06:06:08 AM -34.0190 18.7570 170° South 246 283 3,300 -533 Descending FlightAware ADS-B
Mon 06:06:38 AM -34.0540 18.7630 172° South 228 262 3,100 -400 Descending FlightAware ADS-B
Mon 06:06:53 AM -34.0700 18.7660 171° South 228 262 3,000 -150 Descending FlightAware ADS-B
Mon 06:07:18 AM -34.0940 18.7710 170° South 229 264 3,000  Level FlightAware ADS-B
Mon 06:07:58 AM -34.1320 18.7610 192° South 198 228 3,000  Level FlightAware ADS-B
Mon 06:08:13 AM -34.1370 18.7480 245° Southwest 177 204 3,000  Level FlightAware ADS-B
Mon 06:08:28 AM -34.1400 18.7340 255° West 173 199 3,000 -750 Level FlightAware ADS-B
Mon 06:08:53 AM -34.1320 18.7110 293° West 173 199 2,500 -1,091 Descending FlightAware ADS-B
Mon 06:09:23 AM -34.1160 18.6870 309° West 186 214 2,000 -500 Descending FlightAware ADS-B
Mon 06:09:53 AM -34.1010 18.6640 308° West 183 211 2,000  Level FlightAware ADS-B
Mon 06:10:18 AM -34.0880 18.6430 307° West 163 188 2,000  Level FlightAware ADS-B
Mon 06:10:33 AM -34.0780 18.6370 334° Northwest 167 192 2,000 -667 Level FlightAware ADS-B
Mon 06:11:03 AM -34.0550 18.6300 346° North 152 175 1,500 -873 Descending FlightAware ADS-B
Mon 06:11:28 AM -34.0380 18.6250 346° North 148 170 1,200 -764 Descending FlightAware ADS-B
Mon 06:11:58 AM -34.0190 18.6190 345° North 136 157 800 -400 Descending FlightAware ADS-B
Mon 06:12:28 AM -34.0020 18.6130 344° North 134 154 800  Level FlightAware ADS-B
Mon 06:15:00 AM -33.9648 18.6017 346° North  Level Estimated
Mon 06:16:00 AM -33.9648 18.6017 328° Northwest  Level Estimated
Mon 06:17:00 AM -33.9648 18.6017 328° Northwest  Level Estimated
Mon 06:18:00 AM -33.9648 18.6017 328° Northwest  Level Estimated
Mon 06:19:00 AM -33.9648 18.6017 328° Northwest  Level Estimated
Mon 06:20:00 AM -33.9648 18.6017 328° Northwest  Level Estimated
Mon 06:21:00 AM -33.9648 18.6017 328° Northwest  Level Estimated
Mon 06:22:00 AM -33.9648 18.6017 328° Northwest  Level Estimated

Login

Don't have an account? Register now (free) for customized features, flight alerts, and more!